createdAt,value
2018-09-22T00:00:11.773Z,13.87
2018-09-22T00:02:39.425Z,13.96
2018-09-22T00:05:07.166Z,13.90
2018-09-22T00:07:34.751Z,14.11
2018-09-22T00:10:02.394Z,14.09
2018-09-22T00:12:30.004Z,13.83
2018-09-22T00:14:57.752Z,14.11
2018-09-22T00:17:25.317Z,13.90
2018-09-22T00:19:52.953Z,14.18
2018-09-22T00:22:20.708Z,13.89
2018-09-22T00:24:48.285Z,14.09
2018-09-22T00:27:15.921Z,14.09
2018-09-22T00:29:43.480Z,14.24
2018-09-22T00:32:11.027Z,14.31
2018-09-22T00:34:38.610Z,14.49
2018-09-22T00:37:06.388Z,14.24
2018-09-22T00:39:33.979Z,14.02
2018-09-22T00:42:01.588Z,14.24
2018-09-22T00:44:29.235Z,14.05
2018-09-22T00:46:56.927Z,13.77
2018-09-22T00:49:24.530Z,13.75
2018-09-22T00:51:52.125Z,14.19
2018-09-22T00:54:19.694Z,13.62
2018-09-22T00:56:47.424Z,13.42
2018-09-22T00:59:14.994Z,12.76
2018-09-22T01:01:43.312Z,12.93
2018-09-22T01:04:14.439Z,12.58
2018-09-22T01:06:42.441Z,12.57
2018-09-22T01:09:13.694Z,12.82
2018-09-22T01:11:41.829Z,12.42
2018-09-22T01:14:10.046Z,12.40
2018-09-22T01:16:39.430Z,12.55
2018-09-22T01:19:08.553Z,12.57
2018-09-22T01:21:38.386Z,12.56
2018-09-22T01:24:06.525Z,12.42
2018-09-22T01:26:34.516Z,12.77
2018-09-22T01:29:03.635Z,12.60
2018-09-22T01:31:32.621Z,12.59
2018-09-22T01:34:03.808Z,12.82
2018-09-22T01:36:32.123Z,12.83
2018-09-22T01:39:00.433Z,12.79
2018-09-22T01:41:30.069Z,12.53
2018-09-22T01:43:58.660Z,12.73
2018-09-22T01:46:27.100Z,12.53
2018-09-22T01:48:58.082Z,12.75
2018-09-22T01:51:26.276Z,12.67
2018-09-22T01:53:55.910Z,12.75
2018-09-22T01:56:24.498Z,12.70
2018-09-22T01:58:52.865Z,12.63
2018-09-22T02:01:22.581Z,12.72
2018-09-22T02:03:51.399Z,12.84
2018-09-22T02:06:21.548Z,12.51
2018-09-22T02:08:51.887Z,12.68
2018-09-22T02:11:20.233Z,12.77
2018-09-22T02:13:49.775Z,12.37
2018-09-22T02:16:17.850Z,12.80
2018-09-22T02:18:45.968Z,12.40
2018-09-22T02:21:14.166Z,12.49
2018-09-22T02:23:46.540Z,12.38
2018-09-22T02:26:17.608Z,12.45
2018-09-22T02:28:45.938Z,12.62
2018-09-22T02:31:14.240Z,12.64
2018-09-22T02:33:42.927Z,12.36
2018-09-22T02:36:11.142Z,12.64
2018-09-22T02:38:39.358Z,12.44
2018-09-22T02:41:07.382Z,12.64
2018-09-22T02:43:36.153Z,12.62
2018-09-22T02:46:08.142Z,12.81
2018-09-22T02:48:37.215Z,13.02
2018-09-22T02:51:06.186Z,12.71
2018-09-22T02:53:34.524Z,12.85
2018-09-22T02:56:03.577Z,12.70
2018-09-22T02:58:31.762Z,12.57
2018-09-22T03:01:00.794Z,12.29
2018-09-22T03:03:30.388Z,12.36
2018-09-22T03:05:59.264Z,12.27
2018-09-22T03:08:29.364Z,12.20
2018-09-22T03:10:57.486Z,12.24
2018-09-22T03:13:25.616Z,12.20
2018-09-22T03:15:53.478Z,12.04
2018-09-22T03:18:21.105Z,12.13
2018-09-22T03:20:49.144Z,12.09
2018-09-22T03:23:19.177Z,12.01
2018-09-22T03:25:47.820Z,12.00
2018-09-22T03:28:16.323Z,11.99
2018-09-22T03:30:46.233Z,12.40
2018-09-22T03:33:15.492Z,12.37
2018-09-22T03:35:43.612Z,12.37
2018-09-22T03:38:12.871Z,12.61
2018-09-22T03:40:41.769Z,12.54
2018-09-22T03:43:10.317Z,12.27
2018-09-22T03:45:38.558Z,12.35
2018-09-22T03:48:07.193Z,12.27
2018-09-22T03:50:35.295Z,12.22
2018-09-22T03:53:03.373Z,12.30
2018-09-22T03:55:34.260Z,12.28
2018-09-22T03:58:03.332Z,12.25
2018-09-22T04:00:32.498Z,12.31
2018-09-22T04:03:01.473Z,12.37
2018-09-22T04:05:31.466Z,12.27
2018-09-22T04:07:59.562Z,12.21
2018-09-22T04:10:27.742Z,12.37
2018-09-22T04:12:56.541Z,12.32
2018-09-22T04:15:24.745Z,12.55
2018-09-22T04:17:52.732Z,12.37
2018-09-22T04:20:20.990Z,12.39
2018-09-22T04:22:49.139Z,12.05
2018-09-22T04:25:16.761Z,12.31
2018-09-22T04:27:44.292Z,12.09
2018-09-22T04:30:11.890Z,12.34
2018-09-22T04:32:39.409Z,12.48
2018-09-22T04:35:07.012Z,12.48
2018-09-22T04:37:34.555Z,12.23
2018-09-22T04:40:02.119Z,12.38
2018-09-22T04:42:29.623Z,12.16
2018-09-22T04:44:57.301Z,12.17
2018-09-22T04:47:24.874Z,12.23
2018-09-22T04:49:52.449Z,12.33
2018-09-22T04:52:20.014Z,12.20
2018-09-22T04:54:47.758Z,12.18
2018-09-22T04:57:15.360Z,12.12
2018-09-22T04:59:42.904Z,12.30
2018-09-22T05:02:10.460Z,12.48
2018-09-22T05:04:38.014Z,12.32
2018-09-22T05:07:05.537Z,12.25
2018-09-22T05:09:33.103Z,12.33
2018-09-22T05:12:00.670Z,12.27
2018-09-22T05:14:28.337Z,12.38
2018-09-22T05:16:56.102Z,12.28
2018-09-22T05:19:23.674Z,12.31
2018-09-22T05:21:51.192Z,12.49
2018-09-22T05:24:18.783Z,12.20
2018-09-22T05:26:46.303Z,12.33
2018-09-22T05:29:13.874Z,12.45
2018-09-22T05:31:41.513Z,12.53
2018-09-22T05:34:09.019Z,12.33
2018-09-22T05:36:36.604Z,12.40
2018-09-22T05:39:04.182Z,12.55
2018-09-22T05:41:31.802Z,12.48
2018-09-22T05:43:59.334Z,12.44
2018-09-22T05:46:26.902Z,12.55
2018-09-22T05:48:54.499Z,12.48
2018-09-22T05:51:22.022Z,12.58
2018-09-22T05:53:49.582Z,12.53
2018-09-22T05:56:17.117Z,12.48
2018-09-22T05:58:44.749Z,12.52
2018-09-22T06:01:12.329Z,12.36
2018-09-22T06:03:39.929Z,12.55
2018-09-22T06:06:07.781Z,12.34
2018-09-22T06:08:35.283Z,12.39
2018-09-22T06:11:02.833Z,12.48
2018-09-22T06:13:30.365Z,12.54
2018-09-22T06:15:57.929Z,12.38
2018-09-22T06:18:25.465Z,12.65
2018-09-22T06:20:53.453Z,12.66
2018-09-22T06:23:21.234Z,12.66
2018-09-22T06:25:49.867Z,12.36
2018-09-22T06:28:17.698Z,12.55
2018-09-22T06:30:45.230Z,12.74
2018-09-22T06:33:12.769Z,12.95
2018-09-22T06:35:40.347Z,12.50
2018-09-22T06:38:08.089Z,12.71
2018-09-22T06:40:35.658Z,12.64
2018-09-22T06:43:03.246Z,12.57
2018-09-22T06:45:30.776Z,12.57
2018-09-22T06:47:58.347Z,12.75
2018-09-22T06:50:25.895Z,12.60
2018-09-22T06:52:53.507Z,12.71
2018-09-22T06:55:21.328Z,12.76
2018-09-22T06:57:49.082Z,12.76
2018-09-22T07:00:16.619Z,12.90
2018-09-22T07:02:44.199Z,12.65
2018-09-22T07:05:11.759Z,12.62
2018-09-22T07:07:39.310Z,12.98
2018-09-22T07:10:07.509Z,12.77
2018-09-22T07:12:35.057Z,12.82
2018-09-22T07:15:02.620Z,12.88
2018-09-22T07:17:30.161Z,12.78
2018-09-22T07:19:57.728Z,12.76
2018-09-22T07:22:30.825Z,12.97
2018-09-22T07:24:58.473Z,12.88
2018-09-22T07:27:26.193Z,13.05
2018-09-22T07:29:53.990Z,13.27
2018-09-22T07:32:21.579Z,13.25
2018-09-22T07:34:49.113Z,13.23
2018-09-22T07:37:16.699Z,13.24
2018-09-22T07:39:44.224Z,12.84
2018-09-22T07:42:11.727Z,13.06
2018-09-22T07:44:39.381Z,13.08
2018-09-22T07:47:06.897Z,13.11
2018-09-22T07:49:34.467Z,13.22
2018-09-22T07:52:02.058Z,13.31
2018-09-22T07:54:29.644Z,13.35
2018-09-22T07:56:57.154Z,13.54
2018-09-22T07:59:24.727Z,13.76
2018-09-22T08:01:52.321Z,13.88
2018-09-22T08:04:19.894Z,13.68
2018-09-22T08:06:47.451Z,13.87
2018-09-22T08:09:15.158Z,13.72
2018-09-22T08:11:42.755Z,13.75
2018-09-22T08:14:10.281Z,13.91
2018-09-22T08:16:37.862Z,13.92
2018-09-22T08:19:05.416Z,14.09
2018-09-22T08:21:32.968Z,13.94
2018-09-22T08:24:00.545Z,14.13
2018-09-22T08:26:28.073Z,13.98
2018-09-22T08:28:56.085Z,13.91
2018-09-22T08:31:23.682Z,14.17
2018-09-22T08:33:51.312Z,14.02
2018-09-22T08:36:18.957Z,14.04
2018-09-22T08:38:46.541Z,14.37
2018-09-22T08:41:14.103Z,14.35
2018-09-22T08:43:41.625Z,14.20
2018-09-22T08:46:09.206Z,14.55
2018-09-22T08:48:36.739Z,14.19
2018-09-22T08:51:04.309Z,14.34
2018-09-22T08:53:31.851Z,14.47
2018-09-22T08:55:59.376Z,14.13
2018-09-22T08:58:26.949Z,14.20
2018-09-22T09:00:54.513Z,14.29
2018-09-22T09:03:22.078Z,14.13
2018-09-22T09:05:49.616Z,14.36
2018-09-22T09:08:17.265Z,14.42
2018-09-22T09:10:45.005Z,14.52
2018-09-22T09:13:12.588Z,14.54
2018-09-22T09:15:40.132Z,14.37
2018-09-22T09:18:08.096Z,14.37
2018-09-22T09:20:35.902Z,14.50
2018-09-22T09:23:03.669Z,14.67
2018-09-22T09:25:31.399Z,14.91
2018-09-22T09:27:58.962Z,15.07
2018-09-22T09:30:26.667Z,15.16
2018-09-22T09:32:54.203Z,15.08
2018-09-22T09:35:21.779Z,14.82
2018-09-22T09:37:49.853Z,14.96
2018-09-22T09:40:17.390Z,14.76
2018-09-22T09:42:44.942Z,14.86
2018-09-22T09:45:12.521Z,15.00
2018-09-22T09:47:40.073Z,14.87
2018-09-22T09:50:07.779Z,15.01
2018-09-22T09:52:35.503Z,15.22
2018-09-22T09:55:03.039Z,15.26
2018-09-22T09:57:30.631Z,15.28
2018-09-22T09:59:58.205Z,15.49
2018-09-22T10:02:25.989Z,15.41
2018-09-22T10:04:53.562Z,15.36
2018-09-22T10:07:21.215Z,15.50
2018-09-22T10:09:48.968Z,15.58
2018-09-22T10:12:16.531Z,15.49
2018-09-22T10:14:44.057Z,15.37
2018-09-22T10:17:11.633Z,15.40
2018-09-22T10:19:39.158Z,15.56
2018-09-22T10:22:06.737Z,15.46
2018-09-22T10:24:34.412Z,15.34
2018-09-22T10:27:01.980Z,15.78
2018-09-22T10:29:29.510Z,15.96
2018-09-22T10:31:57.092Z,15.99
2018-09-22T10:34:24.639Z,15.96
2018-09-22T10:36:52.259Z,16.10
2018-09-22T10:39:19.825Z,16.24
2018-09-22T10:41:47.372Z,16.17
2018-09-22T10:44:14.922Z,16.28
2018-09-22T10:46:42.431Z,16.18
2018-09-22T10:49:09.987Z,16.20
2018-09-22T10:51:37.543Z,16.44
2018-09-22T10:54:05.120Z,16.38
2018-09-22T10:56:32.667Z,16.42
2018-09-22T10:59:00.347Z,16.66
2018-09-22T11:01:27.884Z,16.57
2018-09-22T11:03:55.408Z,16.54
2018-09-22T11:06:22.950Z,16.56
2018-09-22T11:08:50.484Z,16.52
2018-09-22T11:11:18.243Z,16.46
2018-09-22T11:13:45.857Z,16.29
2018-09-22T11:16:13.391Z,15.97
2018-09-22T11:18:40.913Z,16.10
2018-09-22T11:21:08.472Z,16.11
2018-09-22T11:23:36.050Z,16.26
2018-09-22T11:26:03.605Z,16.04
2018-09-22T11:28:31.125Z,16.15
2018-09-22T11:30:58.685Z,16.04
2018-09-22T11:33:26.189Z,15.94
2018-09-22T11:35:53.747Z,16.08
2018-09-22T11:38:21.314Z,16.02
2018-09-22T11:40:48.868Z,15.99
2018-09-22T11:43:16.473Z,16.32
2018-09-22T11:45:44.022Z,16.61
2018-09-22T11:48:11.544Z,16.63
2018-09-22T11:50:39.117Z,16.94
2018-09-22T11:53:06.647Z,16.75
2018-09-22T11:55:34.231Z,16.51
2018-09-22T11:58:01.770Z,16.59
2018-09-22T12:00:29.313Z,16.71
2018-09-22T12:02:56.895Z,16.58
2018-09-22T12:05:24.441Z,16.79
2018-09-22T12:07:52.026Z,16.67
2018-09-22T12:10:19.637Z,16.58
2018-09-22T12:12:47.202Z,16.54
2018-09-22T12:15:14.785Z,16.75
2018-09-22T12:17:42.320Z,16.57
2018-09-22T12:20:09.880Z,16.73
2018-09-22T12:22:37.550Z,16.69
2018-09-22T12:25:05.139Z,16.69
2018-09-22T12:27:32.658Z,16.48
2018-09-22T12:30:00.177Z,16.61
2018-09-22T12:32:27.733Z,16.57
2018-09-22T12:34:55.263Z,16.45
2018-09-22T12:37:22.798Z,16.21
2018-09-22T12:39:50.335Z,16.17
2018-09-22T12:42:17.879Z,16.43
2018-09-22T12:44:45.439Z,16.43
2018-09-22T12:47:13.010Z,16.28
2018-09-22T12:49:40.530Z,16.29
2018-09-22T12:52:08.049Z,15.98
2018-09-22T12:54:35.613Z,16.27
2018-09-22T12:57:03.124Z,16.30
2018-09-22T12:59:30.688Z,16.28
2018-09-22T13:01:58.289Z,15.97
2018-09-22T13:04:25.826Z,15.40
2018-09-22T13:06:53.466Z,15.69
2018-09-22T13:09:21.013Z,15.71
2018-09-22T13:11:48.572Z,15.67
2018-09-22T13:14:16.151Z,15.82
2018-09-22T13:16:43.713Z,15.65
2018-09-22T13:19:11.214Z,15.85
2018-09-22T13:21:38.768Z,15.40
2018-09-22T13:24:06.295Z,15.87
2018-09-22T13:26:33.852Z,16.00
2018-09-22T13:29:01.420Z,15.96
2018-09-22T13:31:28.974Z,16.01
2018-09-22T13:33:56.546Z,15.87
2018-09-22T13:36:24.050Z,16.00
2018-09-22T13:38:51.627Z,15.84
2018-09-22T13:41:19.146Z,15.99
2018-09-22T13:43:46.705Z,15.99
2018-09-22T13:46:14.236Z,16.04
2018-09-22T13:48:41.746Z,16.36
2018-09-22T13:51:09.330Z,16.16
2018-09-22T13:53:36.908Z,15.88
2018-09-22T13:56:04.448Z,16.20
2018-09-22T13:58:32.037Z,16.28
2018-09-22T14:00:59.611Z,16.15
2018-09-22T14:03:27.129Z,15.93
2018-09-22T14:05:54.690Z,15.89
2018-09-22T14:08:22.206Z,15.77
2018-09-22T14:10:49.766Z,15.86
2018-09-22T14:13:17.267Z,15.89
2018-09-22T14:15:44.766Z,15.60
2018-09-22T14:18:12.403Z,15.59
2018-09-22T14:20:39.973Z,15.67
2018-09-22T14:23:07.676Z,15.24
2018-09-22T14:25:35.244Z,14.99
2018-09-22T14:28:02.785Z,15.06
2018-09-22T14:30:30.442Z,15.26
2018-09-22T14:32:58.094Z,14.84
2018-09-22T14:35:25.683Z,14.80
2018-09-22T14:37:53.277Z,14.67
2018-09-22T14:40:20.820Z,14.57
2018-09-22T14:42:48.372Z,14.70
2018-09-22T14:45:15.938Z,14.34
2018-09-22T14:47:43.455Z,14.59
2018-09-22T14:50:11.002Z,14.77
2018-09-22T14:52:38.576Z,14.43
2018-09-22T14:55:06.091Z,14.28
2018-09-22T14:57:33.650Z,14.11
2018-09-22T15:00:01.631Z,13.64
2018-09-22T15:02:29.165Z,14.14
2018-09-22T15:04:56.734Z,14.34
2018-09-22T15:07:24.252Z,14.45
2018-09-22T15:09:51.813Z,14.21
2018-09-22T15:12:19.378Z,13.77
2018-09-22T15:14:46.893Z,13.64
2018-09-22T15:17:14.502Z,13.92
2018-09-22T15:19:42.077Z,14.21
2018-09-22T15:22:09.644Z,14.04
2018-09-22T15:24:37.540Z,14.17
2018-09-22T15:27:05.128Z,13.69
2018-09-22T15:29:34.095Z,13.63
2018-09-22T15:32:01.717Z,13.61
2018-09-22T15:34:29.238Z,13.55
2018-09-22T15:36:56.831Z,13.64
2018-09-22T15:39:24.352Z,13.93
2018-09-22T15:41:51.942Z,14.21
2018-09-22T15:44:19.633Z,13.96
2018-09-22T15:46:47.173Z,13.68
2018-09-22T15:49:14.772Z,14.21
2018-09-22T15:51:42.404Z,14.11
2018-09-22T15:54:09.994Z,14.16
2018-09-22T15:56:37.510Z,13.73
2018-09-22T15:59:05.066Z,13.58
2018-09-22T16:01:32.589Z,13.12
2018-09-22T16:04:00.164Z,13.68
2018-09-22T16:06:27.699Z,13.58
2018-09-22T16:08:55.330Z,13.74
2018-09-22T16:11:22.941Z,13.51
2018-09-22T16:13:50.521Z,13.40
2018-09-22T16:16:18.186Z,13.55
2018-09-22T16:18:45.769Z,13.63
2018-09-22T16:21:13.320Z,13.28
2018-09-22T16:23:40.872Z,13.39
2018-09-22T16:26:08.449Z,13.38
2018-09-22T16:28:35.958Z,13.42
2018-09-22T16:31:03.751Z,13.29
2018-09-22T16:33:31.269Z,13.62
2018-09-22T16:35:58.810Z,13.53
2018-09-22T16:38:26.371Z,13.49
2018-09-22T16:40:53.904Z,13.37
2018-09-22T16:43:21.544Z,13.56
2018-09-22T16:45:49.208Z,13.56
2018-09-22T16:48:16.780Z,13.22
2018-09-22T16:50:44.419Z,13.09
2018-09-22T16:53:11.982Z,13.29
2018-09-22T16:55:39.511Z,12.99
2018-09-22T16:58:07.140Z,13.19
2018-09-22T17:00:34.702Z,13.23
2018-09-22T17:03:02.376Z,13.09
2018-09-22T17:05:29.956Z,13.46
2018-09-22T17:07:57.619Z,13.37
2018-09-22T17:10:25.375Z,12.97
2018-09-22T17:12:52.929Z,13.12
2018-09-22T17:15:20.468Z,13.33
2018-09-22T17:17:48.203Z,13.40
2018-09-22T17:20:15.722Z,13.56
2018-09-22T17:22:43.238Z,13.52
2018-09-22T17:25:10.829Z,13.60
2018-09-22T17:27:38.620Z,13.49
2018-09-22T17:30:06.126Z,13.70
2018-09-22T17:32:33.702Z,13.07
2018-09-22T17:35:01.241Z,13.36
2018-09-22T17:37:28.799Z,13.42
2018-09-22T17:39:56.403Z,13.55
2018-09-22T17:42:24.122Z,13.80
2018-09-22T17:44:51.668Z,14.03
2018-09-22T17:47:19.282Z,13.88
2018-09-22T17:49:46.888Z,14.15
2018-09-22T17:52:14.575Z,13.95
2018-09-22T17:54:42.273Z,14.06
2018-09-22T17:57:09.831Z,14.14
2018-09-22T17:59:37.431Z,14.30
2018-09-22T18:02:05.017Z,14.39
2018-09-22T18:04:32.681Z,14.54
2018-09-22T18:07:00.462Z,14.54
2018-09-22T18:09:28.220Z,14.55
2018-09-22T18:11:55.844Z,14.44
2018-09-22T18:14:23.440Z,14.02
2018-09-22T18:16:51.343Z,14.24
2018-09-22T18:19:18.805Z,14.40
2018-09-22T18:21:46.425Z,14.51
2018-09-22T18:24:14.080Z,14.52
2018-09-22T18:26:41.693Z,14.38
2018-09-22T18:29:10.316Z,14.47
2018-09-22T18:31:37.898Z,13.98
2018-09-22T18:34:05.498Z,14.00
2018-09-22T18:36:33.210Z,14.10
2018-09-22T18:39:03.044Z,14.36
2018-09-22T18:41:32.773Z,14.55
2018-09-22T18:44:01.084Z,14.48
2018-09-22T18:46:28.651Z,14.13
2018-09-22T18:48:56.330Z,14.41
2018-09-22T18:51:23.919Z,14.61
2018-09-22T18:53:51.544Z,14.46
2018-09-22T18:56:19.107Z,14.30
2018-09-22T18:58:47.156Z,14.19
2018-09-22T19:01:14.763Z,14.32
2018-09-22T19:03:42.351Z,14.45
2018-09-22T19:06:09.934Z,14.60
2018-09-22T19:08:37.558Z,14.51
2018-09-22T19:11:05.125Z,14.55
2018-09-22T19:13:32.780Z,14.34
2018-09-22T19:16:00.620Z,14.49
2018-09-22T19:18:28.199Z,14.09
2018-09-22T19:20:55.842Z,14.20
2018-09-22T19:23:23.430Z,13.87
2018-09-22T19:25:51.042Z,13.87
2018-09-22T19:28:19.820Z,13.55
2018-09-22T19:30:47.391Z,14.01
2018-09-22T19:33:15.006Z,13.84
2018-09-22T19:35:42.964Z,13.97
2018-09-22T19:38:10.805Z,14.17
2018-09-22T19:40:38.606Z,14.25
2018-09-22T19:43:06.202Z,13.83
2018-09-22T19:45:34.112Z,14.17
2018-09-22T19:48:01.891Z,14.21
2018-09-22T19:50:29.477Z,14.34
2018-09-22T19:53:00.416Z,14.34
2018-09-22T19:55:27.988Z,14.27
2018-09-22T19:57:55.662Z,14.24
2018-09-22T20:00:23.263Z,13.93
2018-09-22T20:02:50.861Z,14.25
2018-09-22T20:05:18.470Z,13.84
2018-09-22T20:07:48.191Z,14.05
2018-09-22T20:10:15.712Z,13.98
2018-09-22T20:12:43.301Z,13.95
2018-09-22T20:15:11.160Z,14.20
2018-09-22T20:17:38.737Z,14.22
2018-09-22T20:20:06.321Z,14.08
2018-09-22T20:22:33.988Z,13.95
2018-09-22T20:25:01.576Z,13.72
2018-09-22T20:27:29.175Z,13.42
2018-09-22T20:29:56.813Z,13.74
2018-09-22T20:32:24.332Z,14.02
2018-09-22T20:34:54.939Z,14.03
2018-09-22T20:37:22.520Z,14.04
2018-09-22T20:39:50.172Z,13.83
2018-09-22T20:42:17.804Z,13.84
2018-09-22T20:44:45.575Z,13.89
2018-09-22T20:47:13.137Z,13.71
2018-09-22T20:49:40.676Z,13.97
2018-09-22T20:52:08.290Z,14.08
2018-09-22T20:54:35.855Z,14.12
2018-09-22T20:57:03.621Z,14.10
2018-09-22T20:59:31.351Z,14.28
2018-09-22T21:01:58.935Z,14.27
2018-09-22T21:04:26.538Z,13.50
2018-09-22T21:06:54.280Z,13.81
2018-09-22T21:09:21.856Z,13.87
2018-09-22T21:11:49.417Z,14.10
2018-09-22T21:14:17.002Z,14.13
2018-09-22T21:16:44.534Z,13.70
2018-09-22T21:19:12.131Z,13.86
2018-09-22T21:21:41.102Z,13.92
2018-09-22T21:24:08.685Z,13.89
2018-09-22T21:26:36.516Z,13.43
2018-09-22T21:29:04.097Z,13.50
2018-09-22T21:31:31.706Z,13.77
2018-09-22T21:33:59.555Z,13.84
2018-09-22T21:36:27.218Z,13.90
2018-09-22T21:38:54.749Z,13.65
2018-09-22T21:41:22.444Z,13.75
2018-09-22T21:43:50.062Z,13.85
2018-09-22T21:46:17.831Z,13.99
2018-09-22T21:48:45.400Z,13.82
2018-09-22T21:51:13.063Z,14.14
2018-09-22T21:53:40.642Z,14.10
2018-09-22T21:56:08.256Z,13.98
2018-09-22T21:58:36.246Z,14.10
2018-09-22T22:01:03.960Z,13.61
2018-09-22T22:03:31.521Z,14.02
2018-09-22T22:05:59.349Z,13.67
2018-09-22T22:08:26.990Z,13.72
2018-09-22T22:10:54.581Z,14.01
2018-09-22T22:13:23.309Z,12.96
2018-09-22T22:15:51.229Z,13.51
2018-09-22T22:18:20.078Z,13.81
2018-09-22T22:20:47.974Z,13.91
2018-09-22T22:23:15.653Z,13.96
2018-09-22T22:25:43.228Z,13.95
2018-09-22T22:28:11.048Z,13.91
2018-09-22T22:30:39.324Z,14.12
2018-09-22T22:33:07.064Z,14.06
2018-09-22T22:35:34.807Z,14.03
2018-09-22T22:38:02.597Z,14.16
2018-09-22T22:40:30.482Z,14.03
2018-09-22T22:42:58.167Z,14.35
2018-09-22T22:45:25.818Z,14.19
2018-09-22T22:47:53.428Z,14.08
2018-09-22T22:50:21.766Z,14.22
2018-09-22T22:52:50.434Z,14.37
2018-09-22T22:55:18.321Z,14.25
2018-09-22T22:57:46.202Z,14.22
2018-09-22T23:00:15.121Z,14.29
2018-09-22T23:02:43.644Z,14.15
2018-09-22T23:05:11.253Z,14.17
2018-09-22T23:07:38.871Z,14.31
2018-09-22T23:10:08.237Z,14.43
2018-09-22T23:12:36.104Z,14.45
2018-09-22T23:15:03.962Z,14.49
2018-09-22T23:17:31.566Z,14.44
2018-09-22T23:20:00.204Z,14.39
2018-09-22T23:22:28.131Z,14.47
2018-09-22T23:24:56.824Z,14.39
2018-09-22T23:27:24.846Z,14.43
2018-09-22T23:29:52.644Z,14.46
2018-09-22T23:32:20.305Z,14.16
2018-09-22T23:34:47.963Z,14.42
2018-09-22T23:37:15.953Z,14.30
2018-09-22T23:39:43.825Z,14.45
2018-09-22T23:42:11.582Z,14.52
2018-09-22T23:44:39.173Z,14.40
2018-09-22T23:47:07.405Z,14.53
2018-09-22T23:49:35.573Z,14.31
2018-09-22T23:52:03.378Z,14.39
2018-09-22T23:54:31.053Z,14.46
2018-09-22T23:56:58.998Z,14.51
2018-09-22T23:59:28.757Z,14.35
